Time;durP1;ratioP1;P1;durP2;ratioP2;P2;SDS_P1;SDS_P2;PMS_P1;PMS_P2;Temp;Humidity;BMP_temperature;BMP_pressure;BME280_temperature;BME280_humidity;BME280_pressure;Samples;Min_cycle;Max_cycle;Signal;HPM_P1;HPM_P2
2023/04/30 00:01:37;;;;;;;7.73;4.83;;;;;;;14.51;nan;99665.66;4926104;29;20213;-81
2023/04/30 00:04:02;;;;;;;7.50;4.90;;;;;;;14.50;nan;99668.41;4925214;29;20747;-81
2023/04/30 00:06:28;;;;;;;7.83;5.10;;;;;;;14.48;nan;99659.78;4926757;29;20228;-82
2023/04/30 00:08:53;;;;;;;8.80;5.57;;;;;;;14.46;nan;99653.75;4925449;29;20232;-82
2023/04/30 00:11:18;;;;;;;6.87;6.17;;;;;;;14.45;nan;99657.38;4926229;29;20206;-82
2023/04/30 00:13:44;;;;;;;6.47;4.73;;;;;;;14.44;nan;99658.31;4926369;29;20612;-82
2023/04/30 00:16:10;;;;;;;8.70;5.20;;;;;;;14.45;nan;99655.56;4924443;29;20228;-82
2023/04/30 00:18:35;;;;;;;5.63;4.20;;;;;;;14.43;nan;99660.13;4921095;29;20334;-81
2023/04/30 00:21:01;;;;;;;4.03;3.63;;;;;;;14.42;nan;99654.94;4918646;29;20240;-81
2023/04/30 00:23:26;;;;;;;6.40;5.10;;;;;;;14.42;nan;99652.31;4918426;29;20245;-81
2023/04/30 00:25:52;;;;;;;6.87;5.20;;;;;;;14.42;nan;99653.16;4917428;29;20721;-82
2023/04/30 00:28:17;;;;;;;8.63;5.70;;;;;;;14.44;nan;99655.69;4916779;29;20227;-81
2023/04/30 00:30:43;;;;;;;6.60;5.10;;;;;;;14.43;nan;99654.00;4919499;29;20236;-82
2023/04/30 00:33:09;;;;;;;7.07;4.93;;;;;;;14.39;nan;99664.81;4918520;29;20308;-81
2023/04/30 00:35:34;;;;;;;5.27;4.13;;;;;;;14.39;nan;99658.66;4922480;29;20344;-81
2023/04/30 00:38:00;;;;;;;5.13;4.57;;;;;;;14.36;nan;99651.81;4918647;29;20232;-81
2023/04/30 00:40:25;;;;;;;7.30;4.77;;;;;;;14.35;nan;99649.31;4906937;29;20229;-81
2023/04/30 00:42:52;;;;;;;7.70;6.10;;;;;;;14.32;nan;99649.56;4917401;29;20216;-81
2023/04/30 00:45:20;;;;;;;6.53;5.55;;;;;;;14.30;nan;99648.84;4917588;29;20271;-81
2023/04/30 00:47:46;;;;;;;6.85;5.10;;;;;;;14.27;nan;99651.72;4912472;29;20232;-81
2023/04/30 00:50:14;;;;;;;6.63;5.03;;;;;;;14.24;nan;99644.88;4916876;29;20220;-82
2023/04/30 00:52:44;;;;;;;6.35;5.53;;;;;;;14.20;nan;99647.88;4917483;29;20568;-82
2023/04/30 00:55:11;;;;;;;7.40;5.90;;;;;;;14.14;nan;99644.75;4921249;29;20229;-81
2023/04/30 00:57:37;;;;;;;7.38;6.03;;;;;;;14.10;nan;99638.03;4920557;29;20224;-81
2023/04/30 01:00:03;;;;;;;7.40;5.35;;;;;;;14.07;nan;99632.13;4917686;29;20314;-81
2023/04/30 01:02:30;;;;;;;8.07;6.35;;;;;;;14.02;nan;99635.16;4911199;29;20442;-81
2023/04/30 01:04:56;;;;;;;9.85;6.43;;;;;;;13.97;nan;99613.53;4920742;29;20466;-81
2023/04/30 01:07:23;;;;;;;9.25;6.40;;;;;;;13.90;nan;99615.78;4923343;29;20587;-82
2023/04/30 01:09:49;;;;;;;6.40;5.70;;;;;;;13.83;nan;99611.97;4923171;29;20217;-81
2023/04/30 01:12:38;;;;;;;7.00;5.73;;;;;;;13.73;nan;99603.91;4909275;29;20608;-81
2023/04/30 01:15:16;;;;;;;9.63;6.47;;;;;;;13.62;nan;99601.25;4925226;29;20229;-81
2023/04/30 01:20:11;;;;;;;9.63;6.53;;;;;;;13.50;nan;99597.75;4975583;28;20254;-88
2023/04/30 01:23:01;;;;;;;8.73;6.63;;;;;;;13.49;nan;99605.78;4969698;28;20852;-88
2023/04/30 01:25:39;;;;;;;9.52;6.60;;;;;;;13.44;nan;99595.56;4990173;28;20234;-88
2023/04/30 01:28:09;;;;;;;10.40;6.45;;;;;;;13.39;nan;99594.22;4985300;28;20231;-89
2023/04/30 01:30:35;;;;;;;12.90;7.90;;;;;;;13.35;nan;99601.53;4981093;28;20210;-88
2023/04/30 01:33:02;;;;;;;10.93;7.68;;;;;;;13.35;nan;99603.34;4980630;28;20899;-87
2023/04/30 01:36:05;;;;;;;11.00;8.80;;;;;;;13.35;nan;99605.97;4977588;28;20505;-88
2023/04/30 01:38:36;;;;;;;10.60;7.43;;;;;;;13.27;nan;99604.75;4981251;28;20258;-88
2023/04/30 01:41:23;;;;;;;11.15;8.10;;;;;;;13.21;nan;99601.72;4980792;28;20222;-88
2023/04/30 01:43:51;;;;;;;9.27;6.95;;;;;;;13.14;nan;99601.31;4976635;28;20561;-88
2023/04/30 01:46:23;;;;;;;9.05;7.35;;;;;;;13.12;nan;99608.50;4978938;28;20236;-88
2023/04/30 01:49:01;;;;;;;11.25;7.22;;;;;;;13.12;nan;99602.38;4968200;28;20250;-90
2023/04/30 01:51:38;;;;;;;10.60;8.07;;;;;;;13.13;nan;99604.09;4979841;28;20227;-88
2023/04/30 01:54:35;;;;;;;10.45;8.05;;;;;;;13.14;nan;99601.31;4980009;28;20219;-88
2023/04/30 01:57:03;;;;;;;12.65;7.97;;;;;;;13.17;nan;99602.88;4976448;28;20224;-88
2023/04/30 01:59:37;;;;;;;10.35;8.23;;;;;;;13.17;nan;99601.06;4978086;28;20310;-88
2023/04/30 02:02:02;;;;;;;11.20;8.10;;;;;;;13.16;nan;99604.69;4979202;28;20237;-89
2023/04/30 02:04:27;;;;;;;13.13;8.30;;;;;;;13.15;nan;99600.38;4976995;28;20594;-88
2023/04/30 02:06:53;;;;;;;13.00;9.67;;;;;;;13.14;nan;99608.38;4980668;28;20223;-88
2023/04/30 02:09:18;;;;;;;11.33;8.50;;;;;;;13.13;nan;99607.56;4977264;28;20745;-88
2023/04/30 02:11:44;;;;;;;10.70;8.70;;;;;;;13.14;nan;99605.75;4964037;28;20234;-88
2023/04/30 02:14:09;;;;;;;10.10;9.07;;;;;;;13.14;nan;99606.59;4978132;28;20313;-88
2023/04/30 02:16:35;;;;;;;15.83;11.20;;;;;;;13.13;nan;99609.34;4978588;28;20273;-88
2023/04/30 02:19:01;;;;;;;15.13;10.57;;;;;;;13.12;nan;99615.56;4988698;28;20314;-87
2023/04/30 02:21:27;;;;;;;13.75;11.57;;;;;;;13.11;nan;99605.97;4982173;28;20767;-88
2023/04/30 02:23:52;;;;;;;12.30;10.18;;;;;;;13.12;nan;99607.66;4998327;28;20285;-88
2023/04/30 02:26:18;;;;;;;18.17;10.63;;;;;;;13.10;nan;99605.16;4982237;28;20768;-89
2023/04/30 02:28:43;;;;;;;15.17;10.33;;;;;;;13.07;nan;99605.38;4997312;28;20647;-88
2023/04/30 02:31:09;;;;;;;13.93;10.47;;;;;;;13.05;nan;99607.28;4982284;28;20212;-88
2023/04/30 02:33:35;;;;;;;18.50;13.85;;;;;;;13.05;nan;99607.28;4982841;28;20483;-89
2023/04/30 02:36:01;;;;;;;15.43;10.70;;;;;;;13.05;nan;99599.38;4981562;28;21022;-88
2023/04/30 02:38:27;;;;;;;13.70;10.30;;;;;;;13.04;nan;99593.25;5000832;28;20283;-88
2023/04/30 02:40:52;;;;;;;15.93;10.50;;;;;;;13.06;nan;99604.50;4996353;28;20233;-88
2023/04/30 02:43:18;;;;;;;15.40;11.57;;;;;;;13.05;nan;99604.63;5000053;28;20722;-88
2023/04/30 02:45:43;;;;;;;16.97;11.13;;;;;;;13.07;nan;99608.00;4999144;28;20238;-88
2023/04/30 02:48:08;;;;;;;17.77;11.97;;;;;;;13.06;nan;99604.50;4982250;28;20233;-88
2023/04/30 02:50:34;;;;;;;15.10;10.93;;;;;;;13.07;nan;99603.56;5003886;28;20321;-88
2023/04/30 02:52:59;;;;;;;18.20;12.33;;;;;;;13.06;nan;99608.94;5001401;28;20206;-88
2023/04/30 02:55:24;;;;;;;19.43;13.67;;;;;;;13.04;nan;99610.84;4984291;28;20230;-88
2023/04/30 02:57:50;;;;;;;22.73;12.07;;;;;;;13.02;nan;99599.59;5004067;28;20225;-88
2023/04/30 03:00:16;;;;;;;16.23;11.33;;;;;;;12.99;nan;99602.47;4984723;28;20234;-87
2023/04/30 03:02:42;;;;;;;16.23;11.93;;;;;;;12.97;nan;99605.19;4983329;28;20210;-88
2023/04/30 03:05:07;;;;;;;16.70;10.67;;;;;;;12.98;nan;99606.03;4981297;28;20214;-88
2023/04/30 03:07:33;;;;;;;17.30;12.13;;;;;;;12.98;nan;99601.59;4981628;28;20229;-88
2023/04/30 03:09:58;;;;;;;18.50;11.53;;;;;;;12.99;nan;99603.31;4999400;28;20219;-87
2023/04/30 03:12:24;;;;;;;15.33;11.87;;;;;;;12.99;nan;99600.66;4998235;28;20218;-88
2023/04/30 03:14:49;;;;;;;13.80;10.90;;;;;;;13.00;nan;99604.13;5001791;28;20208;-87
2023/04/30 03:17:15;;;;;;;18.43;11.60;;;;;;;12.99;nan;99598.03;4982194;28;20213;-89
2023/04/30 03:19:40;;;;;;;22.83;12.60;;;;;;;13.00;nan;99597.06;4982191;28;20290;-88
2023/04/30 03:22:06;;;;;;;20.67;11.90;;;;;;;13.02;nan;99600.44;4997814;28;20222;-88
2023/04/30 03:24:31;;;;;;;18.03;12.13;;;;;;;13.03;nan;99588.91;4981693;28;20242;-88
2023/04/30 03:26:57;;;;;;;13.83;10.13;;;;;;;13.03;nan;99588.91;4992393;28;20448;-87
2023/04/30 03:29:22;;;;;;;18.70;12.63;;;;;;;13.06;nan;99595.75;4993636;28;20245;-89
2023/04/30 03:31:48;;;;;;;16.00;11.40;;;;;;;13.07;nan;99589.56;4993674;28;20304;-87
2023/04/30 03:34:13;;;;;;;18.63;13.55;;;;;;;13.11;nan;99583.09;4994762;28;20504;-87
2023/04/30 03:36:39;;;;;;;18.70;12.40;;;;;;;13.13;nan;99578.53;4980006;28;20238;-87
2023/04/30 03:39:04;;;;;;;24.77;13.90;;;;;;;13.13;nan;99582.97;4999052;28;20234;-88
2023/04/30 03:41:30;;;;;;;15.67;13.20;;;;;;;13.09;nan;99577.06;4996221;28;20300;-87
2023/04/30 03:43:55;;;;;;;18.40;12.70;;;;;;;13.06;nan;99579.94;4977912;28;20643;-87
2023/04/30 03:46:21;;;;;;;17.90;11.87;;;;;;;13.04;nan;99573.94;4977053;28;20239;-88
2023/04/30 03:48:47;;;;;;;19.70;12.02;;;;;;;13.04;nan;99584.47;4995786;28;20305;-88
2023/04/30 03:51:13;;;;;;;14.33;11.13;;;;;;;13.03;nan;99581.00;4976510;28;20230;-88
2023/04/30 03:53:38;;;;;;;21.60;12.97;;;;;;;13.01;nan;99580.28;4981105;28;20469;-88
2023/04/30 03:56:04;;;;;;;19.80;12.97;;;;;;;13.01;nan;99582.06;4999573;28;20206;-88
2023/04/30 03:58:30;;;;;;;20.05;13.27;;;;;;;13.01;nan;99577.63;4977312;28;20303;-88
2023/04/30 04:00:56;;;;;;;19.57;12.57;;;;;;;12.99;nan;99582.22;4976392;28;20276;-88
2023/04/30 04:03:22;;;;;;;18.47;12.67;;;;;;;13.00;nan;99575.97;4976581;28;20216;-88
2023/04/30 04:05:47;;;;;;;18.88;12.60;;;;;;;13.01;nan;99567.09;4977446;28;21080;-87
2023/04/30 04:08:13;;;;;;;17.97;11.57;;;;;;;13.01;nan;99577.63;4979141;28;20250;-87
2023/04/30 04:10:39;;;;;;;15.40;10.73;;;;;;;13.03;nan;99569.63;4980130;28;20337;-87
2023/04/30 04:13:05;;;;;;;24.13;12.75;;;;;;;13.05;nan;99576.47;4980099;28;20887;-90
2023/04/30 04:15:32;;;;;;;16.45;10.95;;;;;;;13.05;nan;99576.47;4976954;28;20588;-88
2023/04/30 04:17:58;;;;;;;17.35;10.30;;;;;;;13.04;nan;99581.84;4980388;28;20220;-87
2023/04/30 04:20:23;;;;;;;15.90;11.20;;;;;;;13.04;nan;99581.84;4979525;28;20225;-87
2023/04/30 04:22:49;;;;;;;18.63;12.17;;;;;;;13.03;nan;99575.75;4982954;28;20226;-87
2023/04/30 04:25:16;;;;;;;18.07;12.73;;;;;;;13.03;nan;99574.91;4965562;28;20273;-88
2023/04/30 04:27:43;;;;;;;18.20;12.93;;;;;;;13.01;nan;99585.53;4975606;28;20220;-88
2023/04/30 04:30:09;;;;;;;17.60;11.67;;;;;;;13.00;nan;99586.50;4975222;28;20245;-87
2023/04/30 04:32:40;;;;;;;16.63;11.63;;;;;;;13.00;nan;99590.94;4979029;28;20449;-88
2023/04/30 04:35:07;;;;;;;16.63;11.48;;;;;;;13.00;nan;99588.31;4978791;28;20448;-87
2023/04/30 04:37:33;;;;;;;17.33;11.50;;;;;;;13.00;nan;99590.94;4978840;28;20788;-88
2023/04/30 04:39:59;;;;;;;15.38;10.05;;;;;;;13.01;nan;99592.63;4980715;28;20219;-87
2023/04/30 04:42:25;;;;;;;17.63;11.33;;;;;;;13.01;nan;99589.97;4986523;28;20225;-88
2023/04/30 04:44:50;;;;;;;13.20;10.40;;;;;;;13.02;nan;99596.97;4981300;28;20253;-88
2023/04/30 04:47:18;;;;;;;14.80;9.40;;;;;;;13.02;nan;99589.06;4979378;28;20834;-88
2023/04/30 04:49:43;;;;;;;15.82;10.32;;;;;;;13.00;nan;99591.78;4986282;28;20225;-88
2023/04/30 04:52:09;;;;;;;16.33;10.27;;;;;;;13.01;nan;99585.53;4979674;28;20218;-88
2023/04/30 04:54:35;;;;;;;15.77;11.10;;;;;;;13.04;nan;99595.91;4978882;28;20211;-87
2023/04/30 04:57:01;;;;;;;16.47;10.50;;;;;;;13.09;nan;99597.34;4978045;28;21021;-87
2023/04/30 04:59:28;;;;;;;12.20;8.63;;;;;;;13.12;nan;99599.75;4994252;28;20222;-87
2023/04/30 05:01:53;;;;;;;15.90;10.10;;;;;;;13.14;nan;99593.41;4981384;28;20353;-88
2023/04/30 05:04:19;;;;;;;13.80;9.18;;;;;;;13.19;nan;99590.44;4988135;28;20560;-88
2023/04/30 05:06:45;;;;;;;13.73;8.93;;;;;;;13.22;nan;99593.66;4985548;28;20225;-88
2023/04/30 05:09:10;;;;;;;13.53;9.10;;;;;;;13.25;nan;99595.22;4982988;28;20290;-89
2023/04/30 05:11:36;;;;;;;11.90;8.90;;;;;;;13.29;nan;99594.09;5004215;28;20207;-89
2023/04/30 05:14:02;;;;;;;14.13;9.18;;;;;;;13.35;nan;99603.34;4984142;28;20206;-89
2023/04/30 05:16:27;;;;;;;11.90;8.80;;;;;;;13.39;nan;99600.34;4983130;28;20214;-88
2023/04/30 05:18:53;;;;;;;12.43;8.30;;;;;;;13.43;nan;99601.81;5003173;28;20286;-88
2023/04/30 05:21:18;;;;;;;10.40;7.53;;;;;;;13.47;nan;99598.00;4984593;28;20676;-89
2023/04/30 05:23:44;;;;;;;13.90;8.80;;;;;;;13.52;nan;99602.06;5007240;28;20218;-88
2023/04/30 05:26:09;;;;;;;10.80;8.07;;;;;;;13.55;nan;99605.28;5001257;28;20646;-88
2023/04/30 05:28:35;;;;;;;16.67;8.47;;;;;;;13.60;nan;99599.69;4977011;28;20223;-87
2023/04/30 05:31:00;;;;;;;10.70;6.63;;;;;;;13.65;nan;99597.53;4995303;28;20222;-87
2023/04/30 05:33:26;;;;;;;13.43;7.83;;;;;;;13.68;nan;99595.50;4997624;28;20302;-88
2023/04/30 05:35:51;;;;;;;8.83;6.83;;;;;;;13.73;nan;99601.25;4994272;28;20218;-87
2023/04/30 05:38:17;;;;;;;10.53;6.97;;;;;;;13.81;nan;99591.91;4994091;28;20309;-89
2023/04/30 05:40:42;;;;;;;9.50;8.03;;;;;;;13.87;nan;99602.00;4976866;28;20223;-88
2023/04/30 05:43:07;;;;;;;10.60;7.43;;;;;;;13.95;nan;99586.41;4976358;28;20279;-88
2023/04/30 05:45:33;;;;;;;9.40;7.50;;;;;;;14.00;nan;99593.97;4993582;28;20523;-87
2023/04/30 05:47:58;;;;;;;9.20;7.07;;;;;;;14.09;nan;99582.66;4996160;28;20727;-87
2023/04/30 05:50:24;;;;;;;7.40;6.50;;;;;;;14.21;nan;99591.44;4975962;28;20242;-89
2023/04/30 05:52:49;;;;;;;9.70;7.20;;;;;;;14.32;nan;99579.06;4993606;28;20227;-87
2023/04/30 05:55:14;;;;;;;9.10;7.40;;;;;;;14.40;nan;99589.03;4994453;28;20233;-87
2023/04/30 05:57:40;;;;;;;8.83;7.23;;;;;;;14.48;nan;99580.50;4977663;28;20214;-87
2023/04/30 06:00:06;;;;;;;8.20;7.23;;;;;;;14.65;nan;99574.69;4979270;28;20214;-87
2023/04/30 06:02:37;;;;;;;6.95;6.30;;;;;;;14.86;nan;99585.34;4995683;28;20223;-87
2023/04/30 06:05:03;;;;;;;7.57;6.03;;;;;;;15.02;nan;99582.28;4995838;28;20572;-87
2023/04/30 06:07:28;;;;;;;9.27;6.13;;;;;;;15.15;nan;99574.13;4994913;28;20231;-87
2023/04/30 06:09:55;;;;;;;8.70;6.50;;;;;;;15.26;nan;99577.59;4995977;28;20234;-88
2023/04/30 06:12:20;;;;;;;9.15;6.25;;;;;;;15.40;nan;99586.19;4993690;28;20700;-87
2023/04/30 06:14:45;;;;;;;8.93;7.90;;;;;;;15.57;nan;99571.50;4996577;28;20228;-87
2023/04/30 06:17:12;;;;;;;7.20;6.50;;;;;;;15.74;nan;99580.69;4994731;28;20257;-87
2023/04/30 06:19:37;;;;;;;8.88;6.50;;;;;;;15.88;nan;99581.19;4975031;28;20234;-87
2023/04/30 06:22:03;;;;;;;7.00;5.83;;;;;;;16.02;nan;99576.53;4993567;28;20684;-88
2023/04/30 06:24:29;;;;;;;10.17;6.57;;;;;;;16.14;nan;99580.72;4994876;28;20219;-88
2023/04/30 06:26:55;;;;;;;6.47;4.90;;;;;;;16.24;nan;99573.66;4995284;28;20239;-88
2023/04/30 06:29:23;;;;;;;6.43;5.43;;;;;;;16.31;nan;99582.75;4996266;28;20231;-87
2023/04/30 06:31:49;;;;;;;6.93;5.78;;;;;;;16.34;nan;99584.31;4994869;28;20834;-87
2023/04/30 06:34:15;;;;;;;11.20;6.18;;;;;;;16.36;nan;99580.56;4977772;28;20324;-88
2023/04/30 06:36:40;;;;;;;7.57;5.77;;;;;;;16.40;nan;99585.56;4996258;28;20221;-87
2023/04/30 06:39:06;;;;;;;6.03;5.20;;;;;;;16.39;nan;99590.03;4995971;28;20245;-87
2023/04/30 06:41:31;;;;;;;5.40;4.60;;;;;;;16.43;nan;99585.31;4996478;28;20830;-87
2023/04/30 06:43:56;;;;;;;7.00;4.27;;;;;;;16.45;nan;99578.88;4980353;28;20262;-88
2023/04/30 06:46:22;;;;;;;6.97;5.07;;;;;;;16.48;nan;99578.63;4979761;28;20227;-88
2023/04/30 06:48:47;;;;;;;5.53;4.93;;;;;;;16.51;nan;99582.81;4995650;28;21179;-87
2023/04/30 06:51:13;;;;;;;5.60;5.20;;;;;;;16.53;nan;99586.16;4998018;28;20476;-88
2023/04/30 06:53:38;;;;;;;5.00;4.50;;;;;;;16.56;nan;99578.78;4995380;28;20226;-87
2023/04/30 06:56:04;;;;;;;6.20;5.60;;;;;;;16.71;nan;99581.03;4997943;28;20258;-87
2023/04/30 06:58:29;;;;;;;6.07;5.47;;;;;;;16.94;nan;99579.81;4997355;28;20227;-88
2023/04/30 07:00:55;;;;;;;4.83;4.30;;;;;;;17.22;nan;99564.84;4995036;28;20219;-87
2023/04/30 07:03:20;;;;;;;5.20;4.67;;;;;;;17.46;nan;99569.72;4996673;28;20294;-87
2023/04/30 07:05:45;;;;;;;4.63;4.17;;;;;;;17.96;nan;99570.44;4997828;28;20277;-87
2023/04/30 07:08:11;;;;;;;4.50;4.10;;;;;;;18.54;nan;99571.00;4994035;28;20306;-87
2023/04/30 07:10:37;;;;;;;5.07;4.13;;;;;;;19.13;nan;99559.94;4997498;28;20269;-87
2023/04/30 07:13:02;;;;;;;4.83;4.30;;;;;;;19.83;nan;99567.97;4996597;28;20212;-87
2023/04/30 07:15:28;;;;;;;4.17;3.50;;;;;;;20.42;nan;99558.22;4995049;28;20227;-86
2023/04/30 07:17:54;;;;;;;3.20;2.93;;;;;;;20.97;nan;99549.66;4977850;28;20233;-86
2023/04/30 07:20:19;;;;;;;4.80;3.27;;;;;;;21.26;nan;99556.38;5033887;23;20296;-80
2023/04/30 07:22:45;;;;;;;3.93;3.63;;;;;;;21.41;nan;99549.38;4995787;28;20917;-79
2023/04/30 07:25:11;;;;;;;5.43;2.50;;;;;;;21.51;nan;99548.34;5015556;28;20658;-80
2023/04/30 07:27:37;;;;;;;3.10;2.73;;;;;;;21.69;nan;99550.84;5018117;28;20205;-81
2023/04/30 07:30:03;;;;;;;4.03;2.33;;;;;;;21.99;nan;99535.88;5002313;28;20540;-81
2023/04/30 07:32:29;;;;;;;3.87;2.20;;;;;;;22.33;nan;99542.75;4988205;28;20188;-83
2023/04/30 07:34:54;;;;;;;3.20;2.77;;;;;;;22.58;nan;99544.31;4989490;28;20541;-83
2023/04/30 07:37:20;;;;;;;2.23;1.93;;;;;;;22.82;nan;99542.44;4989769;28;20211;-83
2023/04/30 07:39:46;;;;;;;3.10;2.50;;;;;;;23.18;nan;99538.19;4990051;28;20399;-80
2023/04/30 07:42:11;;;;;;;2.20;2.00;;;;;;;23.30;nan;99541.25;4991316;28;20521;-81
2023/04/30 07:44:37;;;;;;;2.20;2.00;;;;;;;23.04;nan;99543.50;4989723;28;20203;-83
2023/04/30 07:47:04;;;;;;;2.27;1.73;;;;;;;22.56;nan;99538.28;4989754;28;20217;-81
2023/04/30 07:49:29;;;;;;;2.20;2.00;;;;;;;22.19;nan;99547.81;4991136;28;20223;-81
2023/04/30 07:51:55;;;;;;;1.97;1.40;;;;;;;22.22;nan;99550.16;4990893;28;20468;-83
2023/04/30 07:54:20;;;;;;;1.80;1.70;;;;;;;22.19;nan;99555.84;4991066;28;20207;-82
2023/04/30 07:56:47;;;;;;;3.77;2.07;;;;;;;22.16;nan;99547.31;4990697;28;20459;-82
2023/04/30 07:59:13;;;;;;;1.90;1.70;;;;;;;22.22;nan;99552.81;4990895;28;20672;-82
2023/04/30 08:01:38;;;;;;;2.70;1.73;;;;;;;22.19;nan;99553.19;4993227;28;20680;-81
2023/04/30 08:04:04;;;;;;;1.60;1.30;;;;;;;22.39;nan;99553.59;4991383;28;20205;-80
2023/04/30 08:06:29;;;;;;;1.70;1.60;;;;;;;22.15;nan;99551.84;4991460;28;20466;-80
2023/04/30 08:08:54;;;;;;;1.40;1.30;;;;;;;22.24;nan;99550.81;4993225;28;20219;-80
2023/04/30 08:11:20;;;;;;;2.37;1.83;;;;;;;22.30;nan;99555.50;4993678;28;20661;-81
2023/04/30 08:13:45;;;;;;;1.80;1.57;;;;;;;22.05;nan;99554.72;4993471;28;20295;-80
2023/04/30 08:16:11;;;;;;;2.23;1.97;;;;;;;22.05;nan;99562.75;4994678;28;20195;-83
2023/04/30 08:18:43;;;;;;;2.60;2.40;;;;;;;21.77;nan;99565.00;4994140;28;20206;-80
2023/04/30 08:21:12;;;;;;;2.00;1.57;;;;;;;21.53;nan;99567.72;4994696;28;20498;-81
2023/04/30 08:23:38;;;;;;;2.00;1.40;;;;;;;21.58;nan;99560.03;4999257;28;20606;-81
2023/04/30 08:26:03;;;;;;;2.67;1.97;;;;;;;21.73;nan;99561.00;4999362;28;20450;-83
2023/04/30 08:28:29;;;;;;;2.03;1.83;;;;;;;21.48;nan;99565.56;4992990;28;20234;-83
2023/04/30 08:30:54;;;;;;;1.60;1.47;;;;;;;21.29;nan;99560.53;4999596;28;20228;-82
2023/04/30 08:33:19;;;;;;;2.00;1.90;;;;;;;21.35;nan;99565.19;4995522;28;20585;-82
2023/04/30 08:35:45;;;;;;;2.10;1.53;;;;;;;21.29;nan;99566.72;4991522;28;20257;-83
2023/04/30 08:38:10;;;;;;;2.10;1.70;;;;;;;21.16;nan;99575.22;4988125;28;20495;-83
2023/04/30 08:40:36;;;;;;;2.40;1.90;;;;;;;21.08;nan;99566.38;4989851;28;20209;-82
2023/04/30 08:43:10;;;;;;;1.87;1.47;;;;;;;21.18;nan;99570.56;4990042;28;20212;-82
2023/04/30 08:45:36;;;;;;;1.87;1.47;;;;;;;21.17;nan;99558.22;4989115;28;20204;-82
2023/04/30 08:48:03;;;;;;;2.33;1.73;;;;;;;21.12;nan;99565.06;4990524;28;20480;-82
2023/04/30 08:50:29;;;;;;;2.30;2.10;;;;;;;21.02;nan;99564.38;4990857;28;20221;-82
2023/04/30 08:52:57;;;;;;;2.10;1.77;;;;;;;21.06;nan;99561.19;4994522;28;20467;-80
2023/04/30 08:55:25;;;;;;;3.47;1.50;;;;;;;21.05;nan;99570.22;4991700;28;20511;-79
2023/04/30 08:57:50;;;;;;;2.57;1.73;;;;;;;20.87;nan;99573.00;4991250;28;20455;-82
2023/04/30 09:00:16;;;;;;;2.37;2.17;;;;;;;20.76;nan;99570.66;4992292;28;21121;-81
2023/04/30 09:02:42;;;;;;;1.97;1.50;;;;;;;20.65;nan;99562.97;4998450;28;20207;-82
2023/04/30 09:05:12;;;;;;;2.78;1.90;;;;;;;20.66;nan;99560.16;4993286;28;20457;-81
2023/04/30 09:07:41;;;;;;;2.10;1.63;;;;;;;20.84;nan;99559.16;4998058;28;20216;-82
2023/04/30 09:10:18;;;;;;;2.03;1.87;;;;;;;21.02;nan;99554.53;4999998;28;20644;-80
2023/04/30 09:13:04;;;;;;;2.80;2.20;;;;;;;21.07;nan;99546.84;5001992;28;20455;-80
2023/04/30 09:15:31;;;;;;;1.60;1.50;;;;;;;21.08;nan;99542.34;5002429;28;20484;-80
2023/04/30 09:18:17;;;;;;;2.00;1.80;;;;;;;21.06;nan;99545.16;5003748;28;20971;-82
2023/04/30 09:21:01;;;;;;;1.83;1.70;;;;;;;21.03;nan;99545.50;5003762;28;21107;-80
2023/04/30 09:23:28;;;;;;;1.70;1.57;;;;;;;20.97;nan;99544.31;4996049;28;20542;-81
2023/04/30 09:25:53;;;;;;;2.13;1.83;;;;;;;21.00;nan;99540.50;4997330;28;21089;-80
2023/04/30 09:28:22;;;;;;;1.90;1.73;;;;;;;21.14;nan;99539.84;5001222;28;20570;-81
2023/04/30 09:30:48;;;;;;;2.13;1.60;;;;;;;21.33;nan;99543.16;5000806;28;20315;-79
2023/04/30 09:33:13;;;;;;;2.07;1.97;;;;;;;21.26;nan;99537.66;4999105;28;20925;-78
2023/04/30 09:35:42;;;;;;;2.30;2.10;;;;;;;21.28;nan;99538.34;4997357;28;20545;-81
2023/04/30 09:38:28;;;;;;;1.83;1.70;;;;;;;21.36;nan;99532.13;5002109;28;20708;-82
2023/04/30 09:40:54;;;;;;;2.00;1.80;;;;;;;21.26;nan;99531.50;5001815;28;20520;-82
2023/04/30 09:43:19;;;;;;;1.97;1.73;;;;;;;21.28;nan;99533.00;5000475;28;20458;-82
2023/04/30 09:45:47;;;;;;;1.93;1.83;;;;;;;21.38;nan;99530.97;4999188;28;20986;-79
2023/04/30 09:48:22;;;;;;;1.97;1.83;;;;;;;21.35;nan;99525.94;5002098;28;20808;-80
2023/04/30 09:50:49;;;;;;;2.13;1.93;;;;;;;21.26;nan;99526.97;5000235;28;20456;-82
2023/04/30 09:53:18;;;;;;;2.60;1.97;;;;;;;21.22;nan;99528.31;4982329;28;20805;-80
2023/04/30 09:55:48;;;;;;;1.90;1.80;;;;;;;21.26;nan;99518.13;4980789;28;20879;-82
2023/04/30 09:58:15;;;;;;;2.20;2.00;;;;;;;21.28;nan;99526.78;4982647;28;20487;-78
2023/04/30 10:00:42;;;;;;;2.57;1.83;;;;;;;21.26;nan;99508.28;4983742;28;20467;-81
2023/04/30 10:03:09;;;;;;;1.50;1.40;;;;;;;21.52;nan;99502.75;4983793;28;20519;-81
2023/04/30 10:05:43;;;;;;;1.90;1.70;;;;;;;21.83;nan;99505.50;4984230;28;20462;-79
2023/04/30 10:08:27;;;;;;;1.63;1.53;;;;;;;21.84;nan;99506.31;4982633;28;20552;-82
2023/04/30 10:10:58;;;;;;;1.87;1.77;;;;;;;21.87;nan;99504.16;4981625;28;20474;-81
2023/04/30 10:13:27;;;;;;;1.90;1.60;;;;;;;21.83;nan;99494.78;4979829;28;20469;-80
2023/04/30 10:15:58;;;;;;;1.87;1.77;;;;;;;21.91;nan;99490.44;4982660;28;20472;-82
2023/04/30 10:18:29;;;;;;;2.17;2.00;;;;;;;22.04;nan;99490.72;4990674;28;20462;-81
2023/04/30 10:20:56;;;;;;;1.90;1.80;;;;;;;21.81;nan;99483.44;4984960;28;20797;-82
2023/04/30 10:23:21;;;;;;;2.30;2.00;;;;;;;21.49;nan;99492.38;4984189;28;20488;-80
2023/04/30 10:25:49;;;;;;;2.43;1.97;;;;;;;21.36;nan;99487.56;4984607;28;20612;-79
2023/04/30 10:28:15;;;;;;;1.90;1.73;;;;;;;21.33;nan;99495.91;4985004;28;20220;-82
2023/04/30 10:30:42;;;;;;;2.17;1.97;;;;;;;21.24;nan;99488.91;4984863;28;20473;-82
2023/04/30 10:33:14;;;;;;;1.93;1.80;;;;;;;21.11;nan;99491.25;4984892;28;20206;-82
2023/04/30 10:35:59;;;;;;;1.77;1.67;;;;;;;21.03;nan;99485.91;4984840;28;20823;-80
2023/04/30 10:38:27;;;;;;;2.37;2.17;;;;;;;20.89;nan;99488.25;4987947;28;20454;-79
2023/04/30 10:40:58;;;;;;;2.30;1.87;;;;;;;20.73;nan;99493.59;4987312;28;21168;-82
2023/04/30 10:43:24;;;;;;;2.20;2.00;;;;;;;20.68;nan;99482.56;4987971;28;20445;-79
2023/04/30 10:45:49;;;;;;;2.35;1.90;;;;;;;20.60;nan;99491.41;4988002;28;20458;-80
2023/04/30 10:48:23;;;;;;;3.40;2.40;;;;;;;20.62;nan;99489.41;4987220;28;20999;-82
2023/04/30 10:50:49;;;;;;;2.37;2.17;;;;;;;20.77;nan;99485.09;4987259;28;20674;-81
2023/04/30 10:53:19;;;;;;;2.27;2.07;;;;;;;20.90;nan;99481.94;4988285;28;20451;-81
2023/04/30 10:56:07;;;;;;;2.00;1.90;;;;;;;21.02;nan;99476.25;4988692;28;21162;-80
2023/04/30 10:58:39;;;;;;;1.77;1.67;;;;;;;20.95;nan;99476.94;4989497;28;20468;-77
2023/04/30 11:01:10;;;;;;;2.30;2.10;;;;;;;20.89;nan;99472.22;4988970;28;20505;-79
2023/04/30 11:03:38;;;;;;;1.87;1.77;;;;;;;20.97;nan;99477.56;4985044;28;20459;-79
2023/04/30 11:06:10;;;;;;;3.47;3.17;;;;;;;21.16;nan;99478.22;4985459;28;20460;-82
2023/04/30 11:08:37;;;;;;;2.13;1.97;;;;;;;21.18;nan;99468.22;4983518;28;20769;-80
2023/04/30 11:11:03;;;;;;;2.47;2.27;;;;;;;21.23;nan;99468.53;4984318;28;20463;-82
2023/04/30 11:13:43;;;;;;;2.17;1.97;;;;;;;21.33;nan;99471.00;4985104;28;20449;-82
2023/04/30 11:16:10;;;;;;;2.10;1.90;;;;;;;21.13;nan;99462.53;4982776;28;20457;-82
2023/04/30 11:18:41;;;;;;;2.00;1.83;;;;;;;21.12;nan;99460.88;4990330;28;20512;-83
2023/04/30 11:21:07;;;;;;;2.00;1.80;;;;;;;21.04;nan;99460.91;4990464;28;21243;-80
2023/04/30 11:23:33;;;;;;;3.10;2.30;;;;;;;20.89;nan;99463.41;4991073;28;20461;-80
2023/04/30 11:26:00;;;;;;;2.73;2.53;;;;;;;21.06;nan;99459.69;4986389;28;20484;-79
2023/04/30 11:28:26;;;;;;;2.80;2.00;;;;;;;21.16;nan;99456.84;4984479;28;21032;-81
2023/04/30 11:30:54;;;;;;;1.70;1.60;;;;;;;21.17;nan;99450.50;4986985;28;20559;-82
2023/04/30 11:33:21;;;;;;;1.93;1.83;;;;;;;21.13;nan;99454.53;4983937;28;20453;-82
2023/04/30 11:35:51;;;;;;;2.17;1.60;;;;;;;21.21;nan;99458.00;4985784;28;20472;-83
2023/04/30 11:38:20;;;;;;;2.60;2.03;;;;;;;21.19;nan;99465.34;4987480;28;20534;-80
2023/04/30 11:40:47;;;;;;;3.60;2.23;;;;;;;21.12;nan;99455.56;4985836;28;20460;-82
2023/04/30 11:43:30;;;;;;;1.93;1.83;;;;;;;21.03;nan;99453.88;4986208;28;20500;-81
2023/04/30 11:46:30;;;;;;;2.20;2.00;;;;;;;21.19;nan;99456.50;4987726;28;20706;-83
2023/04/30 11:48:56;;;;;;;2.90;2.37;;;;;;;21.38;nan;99453.50;4987602;28;20525;-80
2023/04/30 11:51:23;;;;;;;2.73;1.93;;;;;;;21.55;nan;99440.94;4984584;28;20468;-82